Time;durP1;ratioP1;P1;durP2;ratioP2;P2;SDS_P1;SDS_P2;PMS_P1;PMS_P2;Temp;Humidity;BMP_temperature;BMP_pressure;BME280_temperature;BME280_humidity;BME280_pressure;Samples;Min_cycle;Max_cycle;Signal;HPM_P1;HPM_P2
2024/01/03 00:01:34;;;;;;;;;;;204.80;2252.80;;;;;;4977271;28;19913;-75
2024/01/03 00:04:00;;;;;;;;;;;204.80;2252.80;;;;;;4976727;28;19910;-75
2024/01/03 00:06:30;;;;;;;;;;;180.10;2252.80;;;;;;4976821;28;19906;-75
2024/01/03 00:08:56;;;;;;;;;;;204.80;2252.80;;;;;;4955472;28;19913;-75
2024/01/03 00:11:26;;;;;;;;;;;180.10;2252.80;;;;;;4972678;28;19929;-78
2024/01/03 00:14:01;;;;;;;;;;;180.10;2252.80;;;;;;4976440;28;19914;-75
2024/01/03 00:16:26;;;;;;;;;;;180.10;2252.80;;;;;;4976793;28;19906;-81
2024/01/03 00:18:57;;;;;;;;;;;180.10;2252.80;;;;;;4976562;28;19906;-77
2024/01/03 00:21:25;;;;;;;;;;;180.10;2252.80;;;;;;4959081;28;20006;-79
2024/01/03 00:23:58;;;;;;;;;;;180.10;2252.80;;;;;;4975850;28;19918;-79
2024/01/03 00:26:24;;;;;;;;;;;180.10;2252.80;;;;;;4976365;28;19914;-75
2024/01/03 00:28:50;;;;;;;;;;;204.80;2252.80;;;;;;4959241;28;19914;-75
2024/01/03 00:31:34;;;;;;;;;;;204.90;2252.80;;;;;;4976780;28;19910;-79
2024/01/03 00:34:00;;;;;;;;;;;205.00;2252.80;;;;;;4976814;28;19921;-77
2024/01/03 00:36:26;;;;;;;;;;;205.00;2252.80;;;;;;4958776;28;20372;-77
2024/01/03 00:38:51;;;;;;;;;;;205.10;2252.80;;;;;;4976468;28;19910;-75
2024/01/03 00:41:17;;;;;;;;;;;205.10;2252.80;;;;;;4959282;28;19913;-77
2024/01/03 00:43:43;;;;;;;;;;;205.10;2252.80;;;;;;4976199;28;19906;-75
2024/01/03 00:46:09;;;;;;;;;;;205.20;2252.80;;;;;;4975915;28;20047;-76
2024/01/03 00:48:35;;;;;;;;;;;205.20;2252.80;;;;;;4976518;28;19906;-77
2024/01/03 00:51:01;;;;;;;;;;;205.20;2252.80;;;;;;4975955;28;19997;-76
2024/01/03 00:53:26;;;;;;;;;;;205.20;2252.80;;;;;;4958905;28;19921;-76
2024/01/03 00:55:52;;;;;;;;;;;205.20;2252.80;;;;;;4975965;28;19914;-76
2024/01/03 00:58:19;;;;;;;;;;;205.70;2252.80;;;;;;4958864;28;19910;-78
2024/01/03 01:00:45;;;;;;;;;;;205.30;2252.80;;;;;;4976199;28;19914;-79
2024/01/03 01:03:11;;;;;;;;;;;205.40;2252.80;;;;;;4975936;28;19913;-76
2024/01/03 01:05:36;;;;;;;;;;;205.50;2252.80;;;;;;4976751;28;19906;-79
2024/01/03 01:08:02;;;;;;;;;;;205.50;2252.80;;;;;;4975822;28;19906;-77
2024/01/03 01:10:28;;;;;;;;;;;205.50;2252.80;;;;;;4975526;28;19933;-81
2024/01/03 01:12:54;;;;;;;;;;;205.50;2252.80;;;;;;4958821;28;19957;-78
2024/01/03 01:15:20;;;;;;;;;;;205.60;2252.80;;;;;;4973329;28;19906;-77
2024/01/03 01:17:46;;;;;;;;;;;205.60;2252.80;;;;;;4975563;28;19906;-79
2024/01/03 01:20:11;;;;;;;;;;;205.50;2252.80;;;;;;4975762;28;19906;-76
2024/01/03 01:22:37;;;;;;;;;;;205.60;2252.80;;;;;;4975487;28;19968;-78
2024/01/03 01:25:03;;;;;;;;;;;205.60;2252.80;;;;;;4957432;28;19913;-75
2024/01/03 01:27:28;;;;;;;;;;;205.60;2252.80;;;;;;4975575;28;20382;-74
2024/01/03 01:29:54;;;;;;;;;;;205.70;2252.80;;;;;;4958312;28;20349;-76
2024/01/03 01:32:19;;;;;;;;;;;205.60;2252.80;;;;;;4975280;28;19985;-75
2024/01/03 01:34:45;;;;;;;;;;;205.60;2252.80;;;;;;4975944;28;19968;-76
2024/01/03 01:37:11;;;;;;;;;;;205.60;2252.80;;;;;;4975450;28;19937;-78
2024/01/03 01:39:36;;;;;;;;;;;205.60;2252.80;;;;;;4975334;28;19952;-79
2024/01/03 01:42:02;;;;;;;;;;;205.50;2252.80;;;;;;4975484;28;19910;-75
2024/01/03 01:44:28;;;;;;;;;;;205.60;2252.80;;;;;;4974758;28;19945;-75
2024/01/03 01:46:53;;;;;;;;;;;205.60;2252.80;;;;;;4974385;28;19929;-75
2024/01/03 01:49:19;;;;;;;;;;;205.50;2252.80;;;;;;4975424;28;19912;-76
2024/01/03 01:51:45;;;;;;;;;;;205.40;2252.80;;;;;;4975520;28;19906;-79
2024/01/03 01:54:15;;;;;;;;;;;205.40;2252.80;;;;;;4975425;28;19914;-79
2024/01/03 01:56:41;;;;;;;;;;;205.40;2252.80;;;;;;4975619;28;20360;-75
2024/01/03 01:59:07;;;;;;;;;;;205.50;2252.80;;;;;;4958044;28;19906;-77
2024/01/03 02:01:36;;;;;;;;;;;204.80;2252.80;;;;;;4975553;28;20363;-75
2024/01/03 02:04:06;;;;;;;;;;;205.40;2252.80;;;;;;4946255;28;19913;-77
2024/01/03 02:06:32;;;;;;;;;;;205.40;2252.80;;;;;;4975157;28;19906;-80
2024/01/03 02:08:57;;;;;;;;;;;205.50;2252.80;;;;;;4975322;28;20327;-76
2024/01/03 02:11:23;;;;;;;;;;;205.40;2252.80;;;;;;4975357;28;19957;-76
2024/01/03 02:13:49;;;;;;;;;;;205.40;2252.80;;;;;;4974944;28;19914;-76
2024/01/03 02:16:14;;;;;;;;;;;205.40;2252.80;;;;;;4973468;28;19960;-75
2024/01/03 02:18:41;;;;;;;;;;;205.40;2252.80;;;;;;4975271;28;20001;-75
2024/01/03 02:21:12;;;;;;;;;;;205.40;2252.80;;;;;;4957616;28;19913;-79
2024/01/03 02:23:37;;;;;;;;;;;205.40;2252.80;;;;;;4957632;28;20319;-79
2024/01/03 02:26:03;;;;;;;;;;;205.50;2252.80;;;;;;4958053;28;19922;-75
2024/01/03 02:28:29;;;;;;;;;;;205.50;2252.80;;;;;;4957597;28;19913;-75
2024/01/03 02:30:55;;;;;;;;;;;205.60;2252.80;;;;;;4957583;28;20391;-79
2024/01/03 02:33:20;;;;;;;;;;;205.60;2252.80;;;;;;4957888;28;19918;-75
2024/01/03 02:35:46;;;;;;;;;;;205.70;2252.80;;;;;;4975104;28;20331;-75
2024/01/03 02:38:11;;;;;;;;;;;230.40;2252.80;;;;;;4975601;28;19906;-77
2024/01/03 02:40:37;;;;;;;;;;;230.40;2252.80;;;;;;4976701;28;19928;-75
2024/01/03 02:43:03;;;;;;;;;;;230.50;2252.80;;;;;;4964571;28;19960;-76
2024/01/03 02:45:28;;;;;;;;;;;230.40;2252.80;;;;;;4981107;28;20348;-79
2024/01/03 02:47:54;;;;;;;;;;;205.70;2252.80;;;;;;4974970;28;19968;-75
2024/01/03 02:50:20;;;;;;;;;;;205.70;2252.80;;;;;;4974988;28;20348;-79
2024/01/03 02:52:45;;;;;;;;;;;205.60;2252.80;;;;;;4974633;28;19918;-75
2024/01/03 02:55:11;;;;;;;;;;;205.60;2252.80;;;;;;4957679;28;19914;-76
2024/01/03 02:57:36;;;;;;;;;;;205.60;2252.80;;;;;;4974359;28;19910;-80
2024/01/03 03:00:02;;;;;;;;;;;205.70;2252.80;;;;;;4957479;28;19969;-74
2024/01/03 03:02:28;;;;;;;;;;;230.40;2252.80;;;;;;4974671;28;19917;-78
2024/01/03 03:04:54;;;;;;;;;;;230.40;2252.80;;;;;;4957373;28;19906;-78
2024/01/03 03:07:19;;;;;;;;;;;230.40;2252.80;;;;;;4974897;28;19905;-74
2024/01/03 03:09:45;;;;;;;;;;;205.70;2252.80;;;;;;4974790;28;19913;-81
2024/01/03 03:12:10;;;;;;;;;;;230.40;2252.80;;;;;;4974600;28;19961;-76
2024/01/03 03:14:36;;;;;;;;;;;230.40;2252.80;;;;;;4974883;28;20418;-75
2024/01/03 03:17:02;;;;;;;;;;;205.40;2252.80;;;;;;4974524;28;19906;-80
2024/01/03 03:19:28;;;;;;;;;;;230.40;2252.80;;;;;;4957384;28;20320;-82
2024/01/03 03:21:53;;;;;;;;;;;230.50;2252.80;;;;;;4974466;28;19906;-75
2024/01/03 03:24:19;;;;;;;;;;;230.50;2252.80;;;;;;4974552;28;19918;-77
2024/01/03 03:26:44;;;;;;;;;;;230.50;2252.80;;;;;;4974388;28;19965;-77
2024/01/03 03:29:10;;;;;;;;;;;230.50;2252.80;;;;;;4960402;28;19957;-76
2024/01/03 03:31:35;;;;;;;;;;;230.50;2252.80;;;;;;4977918;28;19906;-76
2024/01/03 03:34:01;;;;;;;;;;;230.50;2252.80;;;;;;4977990;28;19914;-76
2024/01/03 03:36:27;;;;;;;;;;;230.40;2252.80;;;;;;4960957;28;19933;-79
2024/01/03 03:38:52;;;;;;;;;;;230.50;2252.80;;;;;;4978430;28;19957;-81
2024/01/03 03:41:19;;;;;;;;;;;230.40;2252.80;;;;;;4960501;28;19914;-77
2024/01/03 03:43:45;;;;;;;;;;;230.40;2252.80;;;;;;4978447;28;19906;-75
2024/01/03 03:46:11;;;;;;;;;;;230.40;2252.80;;;;;;4947803;28;19906;-78
2024/01/03 03:48:37;;;;;;;;;;;230.40;2252.80;;;;;;4978207;28;19906;-75
2024/01/03 03:51:03;;;;;;;;;;;230.40;2252.80;;;;;;4977757;28;19929;-75
2024/01/03 03:53:29;;;;;;;;;;;230.40;2252.80;;;;;;4977987;28;19918;-80
2024/01/03 03:55:54;;;;;;;;;;;230.50;2252.80;;;;;;4977594;28;19910;-80
2024/01/03 03:58:20;;;;;;;;;;;230.50;2252.80;;;;;;4977927;28;20368;-75
2024/01/03 04:00:45;;;;;;;;;;;230.50;2252.80;;;;;;4977555;28;19970;-78
2024/01/03 04:03:11;;;;;;;;;;;230.50;2252.80;;;;;;4977739;28;19941;-79
2024/01/03 04:05:37;;;;;;;;;;;230.50;2252.80;;;;;;4977692;28;19906;-80
2024/01/03 04:08:03;;;;;;;;;;;230.50;2252.80;;;;;;4977554;28;20366;-75
2024/01/03 04:10:29;;;;;;;;;;;230.60;2252.80;;;;;;4977434;28;20001;-76
2024/01/03 04:12:57;;;;;;;;;;;230.60;2252.80;;;;;;4977386;28;20009;-78
2024/01/03 04:15:24;;;;;;;;;;;230.60;2252.80;;;;;;4977393;28;19906;-80
2024/01/03 04:17:49;;;;;;;;;;;230.70;2252.80;;;;;;4977874;28;19956;-75
2024/01/03 04:20:15;;;;;;;;;;;230.70;2252.80;;;;;;4959832;28;19949;-76
2024/01/03 04:22:42;;;;;;;;;;;230.60;2252.80;;;;;;4977223;28;20283;-78
2024/01/03 04:25:07;;;;;;;;;;;230.60;2252.80;;;;;;4959798;28;19914;-79
2024/01/03 04:27:33;;;;;;;;;;;230.50;2252.80;;;;;;4977230;28;19913;-75
2024/01/03 04:29:59;;;;;;;;;;;230.50;2252.80;;;;;;4976993;28;19906;-76
2024/01/03 04:32:24;;;;;;;;;;;230.40;2252.80;;;;;;4977234;28;19980;-80
2024/01/03 04:34:50;;;;;;;;;;;230.40;2252.80;;;;;;4977304;28;19961;-76
2024/01/03 04:37:15;;;;;;;;;;;230.40;2252.80;;;;;;4975948;28;20376;-78
2024/01/03 04:39:41;;;;;;;;;;;230.40;2252.80;;;;;;4976581;28;19906;-76
2024/01/03 04:42:06;;;;;;;;;;;230.50;2252.80;;;;;;4977090;28;19906;-75
2024/01/03 04:44:34;;;;;;;;;;;230.50;2252.80;;;;;;4963788;28;19910;-76
2024/01/03 04:46:59;;;;;;;;;;;230.60;2252.80;;;;;;4976755;28;20253;-75
2024/01/03 04:49:25;;;;;;;;;;;230.70;2252.80;;;;;;4976551;28;19913;-75
2024/01/03 04:51:50;;;;;;;;;;;230.60;2252.80;;;;;;4959201;28;19906;-75
2024/01/03 04:54:16;;;;;;;;;;;230.60;2252.80;;;;;;4976325;28;19914;-75
2024/01/03 04:56:42;;;;;;;;;;;230.70;2252.80;;;;;;4976773;28;19964;-74
2024/01/03 04:59:07;;;;;;;;;;;230.80;2252.80;;;;;;4976381;28;19906;-79
2024/01/03 05:01:33;;;;;;;;;;;230.90;2252.80;;;;;;4959355;28;20364;-80
2024/01/03 05:03:58;;;;;;;;;;;231.00;2252.80;;;;;;4976384;28;20016;-77
2024/01/03 05:06:24;;;;;;;;;;;231.00;2252.80;;;;;;4976641;28;20356;-76
2024/01/03 05:08:50;;;;;;;;;;;231.00;2252.80;;;;;;4958573;28;19913;-75
2024/01/03 05:11:15;;;;;;;;;;;231.10;2252.80;;;;;;4959333;28;19964;-79
2024/01/03 05:13:41;;;;;;;;;;;231.10;2252.80;;;;;;4976163;28;19968;-75
2024/01/03 05:16:06;;;;;;;;;;;231.20;2252.80;;;;;;4976166;28;19912;-75
2024/01/03 05:18:32;;;;;;;;;;;231.20;2252.80;;;;;;4958589;28;19906;-75
2024/01/03 05:20:58;;;;;;;;;;;231.10;2252.80;;;;;;4976140;28;20340;-75
2024/01/03 05:23:24;;;;;;;;;;;230.90;2252.80;;;;;;4973274;28;19918;-76
2024/01/03 05:25:49;;;;;;;;;;;230.90;2252.80;;;;;;4975188;28;19958;-75
2024/01/03 05:28:15;;;;;;;;;;;230.80;2252.80;;;;;;4975531;28;19942;-75
2024/01/03 05:30:41;;;;;;;;;;;230.80;2252.80;;;;;;4974911;28;20283;-75
2024/01/03 05:33:06;;;;;;;;;;;230.70;2252.80;;;;;;4974354;28;19929;-75
2024/01/03 05:35:32;;;;;;;;;;;230.80;2252.80;;;;;;4975333;28;20328;-75
2024/01/03 05:37:57;;;;;;;;;;;230.90;2252.80;;;;;;4975184;28;20001;-81
2024/01/03 05:40:23;;;;;;;;;;;231.00;2252.80;;;;;;4958257;28;19929;-75
2024/01/03 05:42:49;;;;;;;;;;;231.10;2252.80;;;;;;4957850;28;19910;-75
2024/01/03 05:45:14;;;;;;;;;;;231.10;2252.80;;;;;;4975135;28;20013;-75
2024/01/03 05:47:40;;;;;;;;;;;231.20;2252.80;;;;;;4974663;28;20351;-74
2024/01/03 05:50:08;;;;;;;;;;;231.20;2252.80;;;;;;4956932;28;19906;-75
2024/01/03 05:52:34;;;;;;;;;;;231.10;2252.80;;;;;;4956877;28;19910;-76
2024/01/03 05:55:00;;;;;;;;;;;231.10;2252.80;;;;;;4974659;28;19960;-76
2024/01/03 05:57:26;;;;;;;;;;;231.00;2252.80;;;;;;4975398;28;19906;-74
2024/01/03 05:59:52;;;;;;;;;;;231.00;2252.80;;;;;;4975219;28;20411;-74
2024/01/03 06:02:17;;;;;;;;;;;231.00;2252.80;;;;;;4974473;28;20360;-74
2024/01/03 06:04:44;;;;;;;;;;;231.10;2252.80;;;;;;4977691;28;19961;-76
2024/01/03 06:07:10;;;;;;;;;;;231.00;2252.80;;;;;;4968829;28;19906;-75
2024/01/03 06:09:36;;;;;;;;;;;231.20;2252.80;;;;;;4975520;28;19913;-80
2024/01/03 06:12:01;;;;;;;;;;;231.10;2252.80;;;;;;4974323;28;19906;-75
2024/01/03 06:14:27;;;;;;;;;;;231.10;2252.80;;;;;;4974497;28;20331;-74
2024/01/03 06:16:53;;;;;;;;;;;231.10;2252.80;;;;;;4956913;28;19906;-80
2024/01/03 06:19:18;;;;;;;;;;;231.20;2252.80;;;;;;4974589;28;19910;-75
2024/01/03 06:21:44;;;;;;;;;;;256.00;2252.80;;;;;;4974516;28;20340;-75
2024/01/03 06:24:09;;;;;;;;;;;231.30;2252.80;;;;;;4974205;28;19918;-74
2024/01/03 06:26:35;;;;;;;;;;;231.20;2252.80;;;;;;4964238;28;20456;-74
2024/01/03 06:29:01;;;;;;;;;;;231.10;2252.80;;;;;;4974391;28;20359;-75
2024/01/03 06:31:26;;;;;;;;;;;231.20;2252.80;;;;;;4974067;28;19906;-74
2024/01/03 06:33:52;;;;;;;;;;;231.30;2252.80;;;;;;4973649;28;19918;-75
2024/01/03 06:36:18;;;;;;;;;;;256.00;2252.80;;;;;;4974237;28;19965;-79
2024/01/03 06:38:44;;;;;;;;;;;231.30;2252.80;;;;;;4974107;28;19961;-78
2024/01/03 06:41:10;;;;;;;;;;;231.20;2252.80;;;;;;4974283;28;20004;-75
2024/01/03 06:43:35;;;;;;;;;;;231.10;2252.80;;;;;;4956779;28;20009;-75
2024/01/03 06:46:01;;;;;;;;;;;231.30;2252.80;;;;;;4973928;28;19950;-74
2024/01/03 06:48:26;;;;;;;;;;;231.30;2252.80;;;;;;4956539;28;19942;-75
2024/01/03 06:50:52;;;;;;;;;;;256.00;2252.80;;;;;;4974017;28;19996;-80
2024/01/03 06:53:18;;;;;;;;;;;256.20;2252.80;;;;;;4973932;28;19914;-76
2024/01/03 06:55:44;;;;;;;;;;;256.30;2252.80;;;;;;4956605;28;20296;-76
2024/01/03 06:58:09;;;;;;;;;;;256.20;2252.80;;;;;;4973675;28;19926;-76
2024/01/03 07:00:35;;;;;;;;;;;256.00;2252.80;;;;;;4973315;28;20008;-75
2024/01/03 07:03:00;;;;;;;;;;;256.10;2252.80;;;;;;4977406;28;19906;-76
2024/01/03 07:05:26;;;;;;;;;;;256.20;2252.80;;;;;;4960685;28;19906;-75
2024/01/03 07:07:51;;;;;;;;;;;256.00;2252.80;;;;;;4959926;28;19910;-76
2024/01/03 07:10:17;;;;;;;;;;;231.30;2252.80;;;;;;4977756;28;19906;-78
2024/01/03 07:12:43;;;;;;;;;;;231.30;2252.80;;;;;;4978459;28;20279;-77
2024/01/03 07:15:09;;;;;;;;;;;231.30;2252.80;;;;;;4969523;28;20372;-78
2024/01/03 07:17:34;;;;;;;;;;;256.00;2252.80;;;;;;4977308;28;19949;-75
2024/01/03 07:20:00;;;;;;;;;;;231.20;2252.80;;;;;;4960718;28;19938;-75
2024/01/03 07:22:26;;;;;;;;;;;231.10;2252.80;;;;;;4959778;28;20322;-75
2024/01/03 07:24:51;;;;;;;;;;;231.10;2252.80;;;;;;4977072;28;20008;-76
2024/01/03 07:27:17;;;;;;;;;;;231.20;2252.80;;;;;;4977288;28;19933;-75
2024/01/03 07:29:42;;;;;;;;;;;231.10;2252.80;;;;;;4977423;28;20272;-76
2024/01/03 07:32:08;;;;;;;;;;;231.20;2252.80;;;;;;4977794;28;19914;-75
2024/01/03 07:34:34;;;;;;;;;;;231.20;2252.80;;;;;;4977227;28;19914;-80
2024/01/03 07:37:00;;;;;;;;;;;231.30;2252.80;;;;;;4977112;28;20272;-76
2024/01/03 07:39:25;;;;;;;;;;;231.30;2252.80;;;;;;4959529;28;19906;-75
2024/01/03 07:41:51;;;;;;;;;;;256.00;2252.80;;;;;;4977289;28;19906;-75
2024/01/03 07:44:16;;;;;;;;;;;231.30;2252.80;;;;;;4977088;28;20691;-76
2024/01/03 07:46:42;;;;;;;;;;;231.30;2252.80;;;;;;4977074;28;20004;-76
2024/01/03 07:49:08;;;;;;;;;;;231.30;2252.80;;;;;;4977343;28;20004;-75
2024/01/03 07:51:38;;;;;;;;;;;256.10;2252.80;;;;;;4975151;28;19910;-75
2024/01/03 07:54:04;;;;;;;;;;;256.20;2252.80;;;;;;4976330;28;19948;-77
2024/01/03 07:56:30;;;;;;;;;;;256.00;2252.80;;;;;;4972926;28;19946;-76
2024/01/03 07:58:56;;;;;;;;;;;256.20;2252.80;;;;;;4957550;28;19952;-77
2024/01/03 08:01:21;;;;;;;;;;;256.50;2252.80;;;;;;4976894;28;19910;-77
2024/01/03 08:03:47;;;;;;;;;;;256.50;2252.80;;;;;;4959533;28;20343;-77
2024/01/03 08:06:20;;;;;;;;;;;256.50;2252.80;;;;;;4972827;28;19914;-77
2024/01/03 08:08:46;;;;;;;;;;;256.60;2252.80;;;;;;4953015;28;19910;-78
2024/01/03 08:11:11;;;;;;;;;;;256.60;2252.80;;;;;;4972255;28;19913;-78
2024/01/03 08:13:37;;;;;;;;;;;256.20;2252.80;;;;;;4958526;28;19914;-78
2024/01/03 08:16:04;;;;;;;;;;;256.40;2252.80;;;;;;4954905;28;19906;-78
2024/01/03 08:18:29;;;;;;;;;;;256.50;2252.80;;;;;;4958607;28;19910;-76
2024/01/03 08:20:55;;;;;;;;;;;256.50;2252.80;;;;;;4959683;28;19906;-79
2024/01/03 08:23:20;;;;;;;;;;;256.50;2252.80;;;;;;4969759;28;20380;-76
2024/01/03 08:25:46;;;;;;;;;;;256.60;2252.80;;;;;;4959160;28;19983;-75
2024/01/03 08:28:12;;;;;;;;;;;256.20;2252.80;;;;;;4976221;28;19913;-76
2024/01/03 08:30:37;;;;;;;;;;;256.10;2252.80;;;;;;4979041;28;19906;-75
2024/01/03 08:33:03;;;;;;;;;;;256.00;2252.80;;;;;;4955445;28;20446;-75
2024/01/03 08:35:30;;;;;;;;;;;231.30;2252.80;;;;;;4958720;28;19910;-75
2024/01/03 08:37:55;;;;;;;;;;;231.30;2252.80;;;;;;4959176;28;20057;-75
2024/01/03 08:40:21;;;;;;;;;;;256.00;2252.80;;;;;;4959181;28;20009;-75
2024/01/03 08:42:47;;;;;;;;;;;256.00;2252.80;;;;;;4976077;28;20746;-76
2024/01/03 08:45:12;;;;;;;;;;;256.00;2252.80;;;;;;4976713;28;19906;-75
2024/01/03 08:47:38;;;;;;;;;;;256.00;2252.80;;;;;;4958194;28;19912;-75
2024/01/03 08:50:03;;;;;;;;;;;256.10;2252.80;;;;;;4976273;28;19914;-75
2024/01/03 08:52:29;;;;;;;;;;;256.00;2252.80;;;;;;4954629;28;19906;-73
2024/01/03 08:54:55;;;;;;;;;;;256.20;2252.80;;;;;;4975788;28;19921;-75
2024/01/03 08:57:20;;;;;;;;;;;256.10;2252.80;;;;;;4975981;28;19910;-74
2024/01/03 08:59:46;;;;;;;;;;;256.20;2252.80;;;;;;4976022;28;19961;-74
2024/01/03 09:02:11;;;;;;;;;;;256.20;2252.80;;;;;;4958151;28;20327;-78
2024/01/03 09:04:37;;;;;;;;;;;256.30;2252.80;;;;;;4975516;28;19975;-78
2024/01/03 09:07:03;;;;;;;;;;;256.40;2252.80;;;;;;4965018;28;20386;-76
2024/01/03 09:09:28;;;;;;;;;;;256.40;2252.80;;;;;;4975728;28;19917;-75
2024/01/03 09:11:55;;;;;;;;;;;256.40;2252.80;;;;;;4972285;28;20018;-77
2024/01/03 09:14:20;;;;;;;;;;;256.50;2252.80;;;;;;4958121;28;19915;-77
2024/01/03 09:16:46;;;;;;;;;;;256.50;2252.80;;;;;;4957686;28;19918;-76
2024/01/03 09:19:12;;;;;;;;;;;256.50;2252.80;;;;;;4955110;28;19913;-78
2024/01/03 09:21:45;;;;;;;;;;;256.50;2252.80;;;;;;4963110;28;19910;-75
2024/01/03 09:24:11;;;;;;;;;;;256.60;2252.80;;;;;;4962249;28;19924;-77
2024/01/03 09:26:36;;;;;;;;;;;256.60;2252.80;;;;;;4976845;28;19910;-75
2024/01/03 09:29:02;;;;;;;;;;;256.70;2252.80;;;;;;4957698;28;20364;-74
2024/01/03 09:31:28;;;;;;;;;;;256.70;2252.80;;;;;;4958265;28;19906;-77
2024/01/03 09:33:54;;;;;;;;;;;256.70;2252.80;;;;;;4957064;28;20284;-74
2024/01/03 09:36:20;;;;;;;;;;;256.80;2252.80;;;;;;4948810;28;19917;-78
2024/01/03 09:38:47;;;;;;;;;;;256.90;2252.80;;;;;;4957043;28;19913;-75
2024/01/03 09:41:13;;;;;;;;;;;256.90;2252.80;;;;;;4956568;28;19910;-75
2024/01/03 09:43:42;;;;;;;;;;;281.60;2278.40;;;;;;4974643;28;19921;-73
2024/01/03 09:46:11;;;;;;;;;;;281.70;2278.40;;;;;;4974449;28;20012;-76
2024/01/03 09:48:58;;;;;;;;;;;281.70;2278.40;;;;;;4956975;28;19910;-77
2024/01/03 09:51:24;;;;;;;;;;;281.90;2278.40;;;;;;4957281;28;19906;-76
2024/01/03 09:53:54;;;;;;;;;;;282.00;2278.40;;;;;;4957322;28;19921;-77
2024/01/03 09:56:20;;;;;;;;;;;282.00;2278.40;;;;;;4971584;28;19910;-75
2024/01/03 09:58:46;;;;;;;;;;;282.00;2278.40;;;;;;4974601;28;19932;-77
2024/01/03 10:01:12;;;;;;;;;;;282.10;2278.40;;;;;;4957617;28;19913;-76
2024/01/03 10:03:38;;;;;;;;;;;282.00;2278.40;;;;;;4957092;28;19906;-76
2024/01/03 10:06:13;;;;;;;;;;;282.10;2278.40;;;;;;4957204;28;19917;-76
2024/01/03 10:08:39;;;;;;;;;;;282.00;2278.40;;;;;;4974870;28;19906;-77
2024/01/03 10:11:23;;;;;;;;;;;282.00;2278.40;;;;;;4974674;28;19928;-76
2024/01/03 10:13:52;;;;;;;;;;;282.20;2278.40;;;;;;4970664;28;20331;-77
2024/01/03 10:16:30;;;;;;;;;;;282.10;2278.40;;;;;;4974152;28;20380;-76
2024/01/03 10:19:10;;;;;;;;;;;282.10;2278.40;;;;;;4955751;28;19913;-78
2024/01/03 10:21:45;;;;;;;;;;;282.10;2278.40;;;;;;4974214;28;19905;-76
2024/01/03 10:24:11;;;;;;;;;;;282.10;2278.40;;;;;;4974050;28;19918;-76
2024/01/03 10:26:37;;;;;;;;;;;282.20;2278.40;;;;;;4956701;28;19910;-73
2024/01/03 10:29:09;;;;;;;;;;;282.10;2278.40;;;;;;4956905;28;19957;-76
2024/01/03 10:31:35;;;;;;;;;;;282.10;2278.40;;;;;;4974850;28;20436;-76
2024/01/03 10:34:01;;;;;;;;;;;282.10;2278.40;;;;;;4955974;28;19996;-76
2024/01/03 10:36:27;;;;;;;;;;;282.00;2278.40;;;;;;4973858;28;19990;-77
2024/01/03 10:38:54;;;;;;;;;;;282.00;2278.40;;;;;;4956636;28;19949;-76
2024/01/03 10:41:19;;;;;;;;;;;282.00;2278.40;;;;;;4973940;28;19909;-77
2024/01/03 10:43:45;;;;;;;;;;;282.10;2278.40;;;;;;4974110;28;20348;-73
2024/01/03 10:46:11;;;;;;;;;;;282.20;2278.40;;;;;;4973933;28;19913;-75
2024/01/03 10:48:37;;;;;;;;;;;282.20;2278.40;;;;;;4973471;28;19906;-74
2024/01/03 10:51:04;;;;;;;;;;;282.20;2278.40;;;;;;4973935;28;19910;-77
2024/01/03 10:53:34;;;;;;;;;;;282.30;2278.40;;;;;;4973962;28;19918;-76
2024/01/03 10:56:02;;;;;;;;;;;282.30;2278.40;;;;;;4959101;28;20418;-76
2024/01/03 10:58:27;;;;;;;;;;;282.20;2278.40;;;;;;4956441;28;20280;-76
2024/01/03 11:01:07;;;;;;;;;;;282.30;2278.40;;;;;;4974176;28;19906;-76
2024/01/03 11:03:52;;;;;;;;;;;282.20;2278.40;;;;;;4973693;28;19906;-77
2024/01/03 11:06:18;;;;;;;;;;;282.30;2278.40;;;;;;4974085;28;19946;-77
2024/01/03 11:08:48;;;;;;;;;;;282.30;2278.40;;;;;;4971973;28;19906;-75
2024/01/03 11:11:27;;;;;;;;;;;282.40;2278.40;;;;;;4973639;28;19906;-75
2024/01/03 11:13:53;;;;;;;;;;;282.50;2278.40;;;;;;4972327;28;19914;-75
2024/01/03 11:16:32;;;;;;;;;;;282.50;2278.40;;;;;;4956813;28;20034;-75
2024/01/03 11:19:02;;;;;;;;;;;282.50;2278.40;;;;;;4972421;28;19906;-74
2024/01/03 11:21:30;;;;;;;;;;;307.20;2304.00;;;;;;4956172;28;19906;-75
2024/01/03 11:23:56;;;;;;;;;;;307.20;2304.00;;;;;;4954759;28;19925;-74
2024/01/03 11:26:40;;;;;;;;;;;307.30;2304.00;;;;;;4973023;28;19914;-76
2024/01/03 11:29:06;;;;;;;;;;;307.30;2304.00;;;;;;4945530;28;19913;-76
2024/01/03 11:31:50;;;;;;;;;;;307.30;2304.00;;;;;;4972858;28;20229;-76
2024/01/03 11:34:34;;;;;;;;;;;307.30;2304.00;;;;;;4955378;28;19925;-77
2024/01/03 11:37:00;;;;;;;;;;;307.30;2304.00;;;;;;4970794;28;19916;-77
2024/01/03 11:39:35;;;;;;;;;;;307.30;2304.00;;;;;;4960155;28;19910;-74
2024/01/03 11:42:04;;;;;;;;;;;307.30;2304.00;;;;;;4965105;28;20438;-75
2024/01/03 11:44:30;;;;;;;;;;;307.30;2304.00;;;;;;4972761;28;19917;-77
2024/01/03 11:46:59;;;;;;;;;;;307.30;2304.00;;;;;;4970607;28;19910;-75
2024/01/03 11:49:24;;;;;;;;;;;307.50;2304.00;;;;;;4952806;28;19917;-75
2024/01/03 11:51:50;;;;;;;;;;;307.50;2304.00;;;;;;4971253;28;19907;-74
2024/01/03 11:54:16;;;;;;;;;;;307.50;2304.00;;;;;;4959308;28;20287;-79
2024/01/03 11:56:41;;;;;;;;;;;307.60;2304.00;;;;;;4976480;28;19917;-74
2024/01/03 11:59:07;;;;;;;;;;;307.60;2304.00;;;;;;4977222;28;19906;-75
2024/01/03 12:01:32;;;;;;;;;;;307.60;2304.00;;;;;;4971855;28;19910;-74
2024/01/03 12:04:11;;;;;;;;;;;307.60;2304.00;;;;;;4976401;28;20005;-75
2024/01/03 12:06:37;;;;;;;;;;;307.60;2304.00;;;;;;4976388;28;19977;-75
2024/01/03 12:09:03;;;;;;;;;;;307.60;2304.00;;;;;;4976684;28;20356;-76
2024/01/03 12:11:29;;;;;;;;;;;307.80;2304.00;;;;;;4973242;28;19914;-75
2024/01/03 12:13:55;;;;;;;;;;;307.80;2304.00;;;;;;4976056;28;20392;-77
2024/01/03 12:16:20;;;;;;;;;;;307.80;2304.00;;;;;;4976896;28;20000;-76
2024/01/03 12:18:48;;;;;;;;;;;307.80;2304.00;;;;;;4976419;28;19906;-77
2024/01/03 12:21:13;;;;;;;;;;;307.80;2304.00;;;;;;4958820;28;19918;-77
2024/01/03 12:23:39;;;;;;;;;;;307.90;2304.00;;;;;;4953072;29;19924;-77
2024/01/03 12:26:09;;;;;;;;;;;307.90;2304.00;;;;;;4953668;28;20001;-77
2024/01/03 12:28:35;;;;;;;;;;;307.80;2304.00;;;;;;4958865;28;20315;-76
2024/01/03 12:31:00;;;;;;;;;;;307.90;2304.00;;;;;;4959490;28;19906;-77
2024/01/03 12:33:26;;;;;;;;;;;307.90;2304.00;;;;;;4986146;28;19914;-76
2024/01/03 12:35:53;;;;;;;;;;;307.90;2304.00;;;;;;4985470;28;19953;-76
2024/01/03 12:38:22;;;;;;;;;;;307.90;2304.00;;;;;;4960589;28;19918;-77
2024/01/03 12:40:48;;;;;;;;;;;307.90;2304.00;;;;;;4975660;28;19906;-77
2024/01/03 12:43:14;;;;;;;;;;;308.00;2304.00;;;;;;4958643;28;20263;-76
2024/01/03 12:45:39;;;;;;;;;;;308.00;2304.00;;;;;;4958680;28;19917;-77
2024/01/03 12:48:05;;;;;;;;;;;308.00;2304.00;;;;;;4958759;28;19993;-77
2024/01/03 12:50:31;;;;;;;;;;;308.00;2304.00;;;;;;4957422;28;20249;-78
2024/01/03 12:52:57;;;;;;;;;;;308.00;2304.00;;;;;;4942578;28;19980;-78
2024/01/03 12:55:22;;;;;;;;;;;307.90;2304.00;;;;;;4969961;28;19914;-78
2024/01/03 12:57:48;;;;;;;;;;;307.90;2304.00;;;;;;4958436;28;19998;-76
2024/01/03 13:00:14;;;;;;;;;;;307.80;2304.00;;;;;;4958411;28;20356;-77
2024/01/03 13:02:40;;;;;;;;;;;307.80;2304.00;;;;;;4957925;28;19906;-76
2024/01/03 13:05:06;;;;;;;;;;;307.80;2304.00;;;;;;4958767;28;19996;-78
2024/01/03 13:07:31;;;;;;;;;;;307.80;2304.00;;;;;;4975828;28;19906;-76
2024/01/03 13:09:57;;;;;;;;;;;307.80;2304.00;;;;;;4958116;28;20315;-78
2024/01/03 13:12:23;;;;;;;;;;;307.80;2304.00;;;;;;4975690;28;19912;-76
2024/01/03 13:14:50;;;;;;;;;;;307.80;2304.00;;;;;;4975408;28;19914;-75
2024/01/03 13:17:16;;;;;;;;;;;307.70;2304.00;;;;;;4966375;28;19910;-77
2024/01/03 13:19:42;;;;;;;;;;;307.70;2304.00;;;;;;4973295;28;19914;-76
2024/01/03 13:22:08;;;;;;;;;;;307.80;2304.00;;;;;;4973247;28;20291;-75
2024/01/03 13:24:34;;;;;;;;;;;307.80;2304.00;;;;;;4975173;28;19926;-76
2024/01/03 13:26:59;;;;;;;;;;;307.80;2304.00;;;;;;4958301;28;20001;-75
2024/01/03 13:29:25;;;;;;;;;;;307.80;2304.00;;;;;;4957706;28;19941;-77
2024/01/03 13:31:51;;;;;;;;;;;307.80;2304.00;;;;;;4968558;28;19911;-75
2024/01/03 13:34:16;;;;;;;;;;;307.80;2304.00;;;;;;4957314;28;19914;-75
2024/01/03 13:36:42;;;;;;;;;;;307.80;2304.00;;;;;;4968737;28;19971;-74
2024/01/03 13:39:09;;;;;;;;;;;307.70;2304.00;;;;;;4957428;28;19906;-75